^^
Saratoga-Weather Station Historical Data
Daily Summary for June 15, 2020 Units:  Metric    English   Both
Daily Weekly Monthly Yearly Custom
  High: Low: Average:
Temperature: 15.4 °C 2.8 °C 8.7 °C
Dew Point: 7.2 °C 1.6 °C 4.2 °C
Humidity: 94% 45% 75%
Wind Speed: 20.9km/h 0km/h 1.9km/h
Wind Gust: 24.1km/h - -
Wind- - ESE
Pressure: 1019.6 hPa 1012.2 hPa -
Precipitation: 0.0 mm    
Historical Graphs
 
 
Tabular Data for June 15, 2020
Time Temperature Dew Point Pressure Wind Wind Speed Wind Gust Humidity Rainfall Rate (Hourly) solar
00:03 7.7 °C 4.1 °C 1019.6 hPa ENE 3.2 km/h 3.2 km/h 78% 0.0 mm 0 W/m2
00:08 7.6 °C 4 °C 1019.6 hPa Calm   1.6 km/h 78% 0.0 mm 0 W/m2
00:13 7.5 °C 4.1 °C 1019.6 hPa ENE 1.4 km/h 1.6 km/h 79% 0.0 mm 0 W/m2
00:18 7.4 °C 4 °C 1019.6 hPa Calm   1.6 km/h 79% 0.0 mm 0 W/m2
00:23 7.3 °C 3.9 °C 1019.6 hPa Calm   1.6 km/h 79% 0.0 mm 0 W/m2
00:28 7.2 °C 4 °C 1019.6 hPa Calm   1.6 km/h 80% 0.0 mm 0 W/m2
00:33 7.1 °C 3.9 °C 1019.6 hPa ENE 3.2 km/h 4.8 km/h 80% 0.0 mm 0 W/m2
00:38 7.2 °C 4 °C 1019.6 hPa Calm   3.2 km/h 80% 0.0 mm 0 W/m2
00:43 7.1 °C 3.7 °C 1019.6 hPa ENE 1.4 km/h 1.6 km/h 79% 0.0 mm 0 W/m2
00:48 7.1 °C 3.7 °C 1019.6 hPa ENE 3.2 km/h 3.2 km/h 79% 0.0 mm 0 W/m2
00:53 7 °C 3.6 °C 1019.6 hPa ENE 1.4 km/h 1.6 km/h 79% 0.0 mm 0 W/m2
00:58 6.8 °C 3.4 °C 1019.6 hPa ENE 1.4 km/h 1.6 km/h 79% 0.0 mm 0 W/m2
01:03 6.6 °C 3.4 °C 1019.6 hPa ESE 3.2 km/h 3.2 km/h 80% 0.0 mm 0 W/m2
01:08 6.4 °C 3.4 °C 1019.6 hPa Calm   1.6 km/h 81% 0.0 mm 0 W/m2
01:13 6.2 °C 3.2 °C 1019.3 hPa Calm   1.6 km/h 81% 0.0 mm 0 W/m2
01:18 5.9 °C 3.1 °C 1019.6 hPa ESE 1.4 km/h 1.6 km/h 82% 0.0 mm 0 W/m2
01:23 5.7 °C 3 °C 1019.3 hPa Calm   1.6 km/h 83% 0.0 mm 0 W/m2
01:28 5.5 °C 2.8 °C 1019.3 hPa Calm     83% 0.0 mm 0 W/m2
01:33 5.3 °C 2.8 °C 1019.3 hPa Calm     84% 0.0 mm 0 W/m2
01:38 5.2 °C 2.9 °C 1019.3 hPa ESE 1.4 km/h 3.2 km/h 85% 0.0 mm 0 W/m2
01:43 5 °C 2.7 °C 1019.3 hPa Calm   1.6 km/h 85% 0.0 mm 0 W/m2
01:48 4.8 °C 2.7 °C 1019.3 hPa Calm     86% 0.0 mm 0 W/m2
01:53 4.8 °C 2.8 °C 1019.3 hPa Calm     87% 0.0 mm 0 W/m2
01:58 4.8 °C 3 °C 1019.3 hPa Calm     88% 0.0 mm 0 W/m2
02:04 4.9 °C 3.1 °C 1019.3 hPa Calm     88% 0.0 mm 0 W/m2
02:09 5 °C 3.2 °C 1019.0 hPa Calm     88% 0.0 mm 0 W/m2
02:14 5.1 °C 3.3 °C 1019.0 hPa Calm     88% 0.0 mm 0 W/m2
02:19 5.1 °C 3.3 °C 1019.0 hPa Calm     88% 0.0 mm 0 W/m2
02:24 5.2 °C 3.2 °C 1019.0 hPa Calm     87% 0.0 mm 0 W/m2
02:29 5.3 °C 3.3 °C 1019.0 hPa ESE 1.4 km/h 4.8 km/h 87% 0.0 mm 0 W/m2
02:34 5.4 °C 3.4 °C 1019.0 hPa Calm   1.6 km/h 87% 0.0 mm 0 W/m2
02:39 5.5 °C 3.5 °C 1019.0 hPa ESE 1.4 km/h 4.8 km/h 87% 0.0 mm 0 W/m2
02:44 5.6 °C 3.6 °C 1019.0 hPa Calm     87% 0.0 mm 0 W/m2
02:49 5.5 °C 3.3 °C 1019.0 hPa Calm     86% 0.0 mm 0 W/m2
02:54 5.5 °C 3.3 °C 1019.0 hPa ESE 1.4 km/h 1.6 km/h 86% 0.0 mm 0 W/m2
02:59 5.4 °C 3.4 °C 1018.6 hPa Calm     87% 0.0 mm 0 W/m2
03:04 5.4 °C 3.4 °C 1018.6 hPa Calm     87% 0.0 mm 0 W/m2
03:09 5.4 °C 3.4 °C 1018.6 hPa Calm     87% 0.0 mm 0 W/m2
03:14 5.3 °C 3.3 °C 1018.6 hPa Calm     87% 0.0 mm 0 W/m2
03:19 5.3 °C 3.5 °C 1018.6 hPa Calm     88% 0.0 mm 0 W/m2
03:24 5.3 °C 3.5 °C 1018.3 hPa Calm     88% 0.0 mm 0 W/m2
03:29 5.2 °C 3.4 °C 1018.3 hPa Calm     88% 0.0 mm 0 W/m2
03:34 5.2 °C 3.4 °C 1018.3 hPa Calm     88% 0.0 mm 0 W/m2
03:39 5.1 °C 3.3 °C 1018.3 hPa Calm     88% 0.0 mm 0 W/m2
03:44 5.1 °C 3.3 °C 1018.3 hPa Calm     88% 0.0 mm 0 W/m2
03:49 5 °C 3.2 °C 1018.3 hPa Calm     88% 0.0 mm 0 W/m2
03:54 4.8 °C 3 °C 1018.0 hPa Calm     88% 0.0 mm 0 W/m2
03:59 4.7 °C 2.9 °C 1018.0 hPa Calm     88% 0.0 mm 0 W/m2
04:04 4.6 °C 2.8 °C 1018.0 hPa Calm     88% 0.0 mm 0 W/m2
04:09 4.5 °C 2.8 °C 1018.0 hPa Calm     89% 0.0 mm 0 W/m2
04:14 4.4 °C 2.7 °C 1018.0 hPa Calm     89% 0.0 mm 0 W/m2
04:19 4.4 °C 2.9 °C 1018.0 hPa Calm     90% 0.0 mm 0 W/m2
04:25 4.5 °C 3 °C 1017.6 hPa Calm     90% 0.0 mm 0 W/m2
04:30 4.5 °C 3 °C 1017.6 hPa Calm     90% 0.0 mm 0 W/m2
04:35 4.5 °C 3 °C 1017.6 hPa Calm     90% 0.0 mm 0 W/m2
04:40 4.4 °C 2.9 °C 1017.6 hPa Calm     90% 0.0 mm 0 W/m2
04:45 4.3 °C 2.8 °C 1017.6 hPa Calm     90% 0.0 mm 0 W/m2
04:50 4.3 °C 2.8 °C 1017.6 hPa Calm     90% 0.0 mm 0 W/m2
04:55 4.2 °C 2.7 °C 1017.6 hPa Calm     90% 0.0 mm 0 W/m2
05:00 4.2 °C 2.7 °C 1017.6 hPa Calm     90% 0.0 mm 0 W/m2
05:05 4.1 °C 2.6 °C 1017.6 hPa Calm     90% 0.0 mm 0 W/m2
05:10 4 °C 2.5 °C 1017.6 hPa Calm     90% 0.0 mm 0 W/m2
05:15 3.9 °C 2.4 °C 1017.6 hPa Calm     90% 0.0 mm 0 W/m2
05:20 3.8 °C 2.3 °C 1017.6 hPa Calm     90% 0.0 mm 0 W/m2
05:25 3.7 °C 2.4 °C 1017.6 hPa Calm     91% 0.0 mm 0 W/m2
05:30 3.6 °C 2.3 °C 1017.3 hPa Calm     91% 0.0 mm 0 W/m2
05:35 3.5 °C 2.2 °C 1017.3 hPa Calm     91% 0.0 mm 0 W/m2
05:40 3.4 °C 2.1 °C 1017.3 hPa Calm     91% 0.0 mm 0 W/m2
05:45 3.3 °C 2 °C 1017.3 hPa Calm     91% 0.0 mm 0 W/m2
05:50 3.2 °C 1.9 °C 1017.3 hPa Calm     91% 0.0 mm 0 W/m2
05:55 3.2 °C 1.9 °C 1017.3 hPa Calm     91% 0.0 mm 0 W/m2
06:00 3.1 °C 1.9 °C 1017.3 hPa Calm     92% 0.0 mm 0 W/m2
06:05 3.1 °C 1.9 °C 1017.3 hPa Calm     92% 0.0 mm 0 W/m2
06:10 3 °C 1.8 °C 1017.3 hPa Calm     92% 0.0 mm 0 W/m2
06:15 2.9 °C 1.7 °C 1017.3 hPa Calm     92% 0.0 mm 0 W/m2
06:20 2.9 °C 1.7 °C 1017.3 hPa Calm     92% 0.0 mm 0 W/m2
06:25 2.8 °C 1.6 °C 1017.3 hPa Calm     92% 0.0 mm 0 W/m2
06:30 2.8 °C 1.6 °C 1017.3 hPa Calm     92% 0.0 mm 0 W/m2
06:35 2.8 °C 1.8 °C 1017.3 hPa Calm     93% 0.0 mm 0 W/m2
06:40 2.9 °C 1.9 °C 1017.3 hPa Calm     93% 0.0 mm 0 W/m2
06:45 3 °C 2 °C 1017.3 hPa Calm     93% 0.0 mm 0 W/m2
06:50 3.1 °C 2.2 °C 1017.3 hPa Calm     94% 0.0 mm 5 W/m2
06:55 3.2 °C 2.3 °C 1017.3 hPa Calm     94% 0.0 mm 9 W/m2
07:00 3.3 °C 2.4 °C 1017.3 hPa Calm     94% 0.0 mm 12 W/m2
07:06 3.3 °C 2.4 °C 1017.3 hPa Calm     94% 0.0 mm 12 W/m2
07:11 3.5 °C 2.6 °C 1017.3 hPa Calm     94% 0.0 mm 19 W/m2
07:16 3.7 °C 2.8 °C 1017.3 hPa Calm     94% 0.0 mm 19 W/m2
07:21 3.8 °C 2.9 °C 1017.3 hPa Calm     94% 0.0 mm 23 W/m2
07:26 3.9 °C 2.9 °C 1017.3 hPa Calm     93% 0.0 mm 23 W/m2
07:31 4.1 °C 3.1 °C 1017.3 hPa Calm     93% 0.0 mm 30 W/m2
07:36 4.2 °C 3.2 °C 1017.3 hPa Calm     93% 0.0 mm 33 W/m2
07:41 4.3 °C 3.3 °C 1017.3 hPa Calm     93% 0.0 mm 37 W/m2
07:46 4.4 °C 3.2 °C 1017.3 hPa Calm     92% 0.0 mm 40 W/m2
07:51 4.6 °C 3.4 °C 1017.6 hPa Calm     92% 0.0 mm 42 W/m2
07:56 4.7 °C 3.4 °C 1017.6 hPa Calm     91% 0.0 mm 47 W/m2
08:01 4.8 °C 3.5 °C 1017.6 hPa Calm     91% 0.0 mm 51 W/m2
08:06 4.9 °C 3.4 °C 1017.6 hPa Calm     90% 0.0 mm 60 W/m2
08:11 5 °C 3.5 °C 1017.6 hPa Calm     90% 0.0 mm 62 W/m2
08:16 5.1 °C 3.4 °C 1017.6 hPa Calm   1.6 km/h 89% 0.0 mm 72 W/m2
08:21 5.2 °C 3.5 °C 1017.6 hPa Calm     89% 0.0 mm 72 W/m2
08:26 5.3 °C 3.5 °C 1017.6 hPa Calm     88% 0.0 mm 81 W/m2
08:31 5.3 °C 3.5 °C 1017.6 hPa Calm     88% 0.0 mm 79 W/m2
08:36 5.4 °C 3.6 °C 1017.6 hPa Calm     88% 0.0 mm 79 W/m2
08:41 5.6 °C 3.6 °C 1017.6 hPa Calm     87% 0.0 mm 74 W/m2
08:46 5.7 °C 3.7 °C 1017.6 hPa Calm     87% 0.0 mm 83 W/m2
08:51 5.8 °C 3.6 °C 1017.6 hPa Calm     86% 0.0 mm 93 W/m2
08:56 5.8 °C 3.6 °C 1017.6 hPa Calm     86% 0.0 mm 100 W/m2
09:01 5.9 °C 3.6 °C 1017.6 hPa Calm     85% 0.0 mm 100 W/m2
09:07 6.1 °C 3.9 °C 1017.6 hPa Calm     86% 0.0 mm 120 W/m2
09:12 6.2 °C 3.9 °C 1017.6 hPa SSW 1.4 km/h 3.2 km/h 85% 0.0 mm 149 W/m2
09:17 6.4 °C 3.9 °C 1017.6 hPa Calm   1.6 km/h 84% 0.0 mm 167 W/m2
09:22 6.6 °C 3.9 °C 1017.6 hPa East 1.4 km/h 4.8 km/h 83% 0.0 mm 162 W/m2
09:27 6.7 °C 3.8 °C 1017.6 hPa Calm   1.6 km/h 82% 0.0 mm 179 W/m2
09:32 6.8 °C 3.9 °C 1017.6 hPa ENE 3.2 km/h 3.2 km/h 82% 0.0 mm 214 W/m2
09:37 7.1 °C 4.2 °C 1017.6 hPa East 1.4 km/h 3.2 km/h 82% 0.0 mm 218 W/m2
09:42 7.3 °C 4.3 °C 1017.6 hPa East 1.4 km/h 6.4 km/h 81% 0.0 mm 220 W/m2
09:47 7.4 °C 4.2 °C 1017.3 hPa Calm   4.8 km/h 80% 0.0 mm 206 W/m2
09:52 7.6 °C 4.4 °C 1017.3 hPa East 3.2 km/h 6.4 km/h 80% 0.0 mm 200 W/m2
09:57 7.7 °C 4.3 °C 1017.6 hPa East 3.2 km/h 4.8 km/h 79% 0.0 mm 193 W/m2
10:02 7.8 °C 4.4 °C 1017.6 hPa ENE 3.2 km/h 3.2 km/h 79% 0.0 mm 190 W/m2
10:07 7.9 °C 4.5 °C 1017.3 hPa ENE 3.2 km/h 4.8 km/h 79% 0.0 mm 193 W/m2
10:12 8 °C 4.4 °C 1017.3 hPa East 1.4 km/h 4.8 km/h 78% 0.0 mm 192 W/m2
10:17 8.1 °C 4.5 °C 1017.3 hPa Calm   4.8 km/h 78% 0.0 mm 204 W/m2
10:22 8.3 °C 4.7 °C 1017.3 hPa ENE 3.2 km/h 6.4 km/h 78% 0.0 mm 190 W/m2
10:27 8.5 °C 4.9 °C 1016.9 hPa East 6.4 km/h 6.4 km/h 78% 0.0 mm 230 W/m2
10:32 8.8 °C 5 °C 1016.9 hPa ENE 1.4 km/h 4.8 km/h 77% 0.0 mm 250 W/m2
10:37 9.1 °C 5.3 °C 1016.9 hPa ENE 6.4 km/h 8 km/h 77% 0.0 mm 464 W/m2
10:42 9.4 °C 5.2 °C 1016.9 hPa NE 6.4 km/h 12.9 km/h 75% 0.0 mm 487 W/m2
10:47 9.8 °C 5.6 °C 1016.9 hPa East 3.2 km/h 6.4 km/h 75% 0.0 mm 512 W/m2
10:52 10.3 °C 5.9 °C 1016.6 hPa East 4.7 km/h 12.9 km/h 74% 0.0 mm 466 W/m2
10:57 10.6 °C 6 °C 1016.6 hPa ESE 3.2 km/h 11.3 km/h 73% 0.0 mm 475 W/m2
11:02 10.9 °C 6.3 °C 1016.6 hPa Calm   12.9 km/h 73% 0.0 mm 480 W/m2
11:07 11.3 °C 6.4 °C 1016.6 hPa West 4.7 km/h 16.1 km/h 72% 0.0 mm 520 W/m2
11:13 11.3 °C 6.4 °C 1016.6 hPa WNW 4.7 km/h 12.9 km/h 72% 0.0 mm 366 W/m2
11:18 11.4 °C 6.7 °C 1016.6 hPa ENE 1.4 km/h 16.1 km/h 73% 0.0 mm 415 W/m2
11:23 11.8 °C 6.9 °C 1016.3 hPa East 11.1 km/h 14.5 km/h 72% 0.0 mm 494 W/m2
11:28 12 °C 6.9 °C 1016.3 hPa Calm   4.8 km/h 71% 0.0 mm 482 W/m2
11:33 12.3 °C 7 °C 1016.3 hPa ESE 7.9 km/h 14.5 km/h 70% 0.0 mm 506 W/m2
11:38 12.3 °C 7.2 °C 1016.3 hPa ENE 4.7 km/h 9.7 km/h 71% 0.0 mm 526 W/m2
11:43 12.3 °C 7 °C 1016.3 hPa East 3.2 km/h 14.5 km/h 70% 0.0 mm 195 W/m2
11:48 12.3 °C 6.8 °C 1016.3 hPa East 4.7 km/h 8 km/h 69% 0.0 mm 179 W/m2
11:53 12.3 °C 7 °C 1015.9 hPa East 3.2 km/h 8 km/h 70% 0.0 mm 200 W/m2
11:58 12.3 °C 6.8 °C 1015.9 hPa NNW 7.9 km/h 8 km/h 69% 0.0 mm 178 W/m2
12:03 12.4 °C 6.9 °C 1015.9 hPa ESE 3.2 km/h 8 km/h 69% 0.0 mm 508 W/m2
12:08 12.6 °C 6.8 °C 1015.9 hPa East 3.2 km/h 11.3 km/h 68% 0.0 mm 204 W/m2
12:13 12.6 °C 6.8 °C 1015.9 hPa NNE 3.2 km/h 6.4 km/h 68% 0.0 mm 253 W/m2
12:18 12.8 °C 7 °C 1015.9 hPa SE 1.4 km/h 11.3 km/h 68% 0.0 mm 619 W/m2
12:23 13.1 °C 6.9 °C 1015.9 hPa NE 3.2 km/h 11.3 km/h 66% 0.0 mm 230 W/m2
12:28 12.9 °C 6.7 °C 1015.9 hPa NE 7.9 km/h 8 km/h 66% 0.0 mm 204 W/m2
12:33 12.8 °C 6.6 °C 1015.9 hPa Calm     66% 0.0 mm 183 W/m2
12:38 12.8 °C 6.8 °C 1015.6 hPa NNW 4.7 km/h 4.8 km/h 67% 0.0 mm 248 W/m2
12:43 13 °C 6.8 °C 1015.6 hPa NE 3.2 km/h 12.9 km/h 66% 0.0 mm 360 W/m2
12:48 13.2 °C 7 °C 1015.2 hPa North 1.4 km/h 3.2 km/h 66% 0.0 mm 682 W/m2
12:53 13.4 °C 6.7 °C 1015.2 hPa WNW 1.4 km/h 6.4 km/h 64% 0.0 mm 696 W/m2
12:58 13.7 °C 6.8 °C 1015.2 hPa WNW 1.4 km/h 3.2 km/h 63% 0.0 mm 193 W/m2
13:03 13.7 °C 6.8 °C 1015.2 hPa East 3.2 km/h 4.8 km/h 63% 0.0 mm 179 W/m2
13:08 13.7 °C 6.8 °C 1014.9 hPa ESE 11.1 km/h 11.3 km/h 63% 0.0 mm 260 W/m2
13:13 13.7 °C 7.2 °C 1014.9 hPa ENE 1.4 km/h 4.8 km/h 65% 0.0 mm 679 W/m2
13:18 13.9 °C 6.7 °C 1014.9 hPa SSE 9.7 km/h 9.7 km/h 62% 0.0 mm 149 W/m2
13:23 13.8 °C 6.9 °C 1014.6 hPa East 3.2 km/h 14.5 km/h 63% 0.0 mm 229 W/m2
13:28 13.8 °C 6.6 °C 1014.6 hPa ENE 4.7 km/h 19.3 km/h 62% 0.0 mm 179 W/m2
13:33 13.8 °C 6.9 °C 1014.6 hPa SE 7.9 km/h 12.9 km/h 63% 0.0 mm 568 W/m2
13:38 14.1 °C 6.9 °C 1014.6 hPa ESE 7.9 km/h 11.3 km/h 62% 0.0 mm 290 W/m2
13:43 14.1 °C 6.7 °C 1014.2 hPa East 4.7 km/h 6.4 km/h 61% 0.0 mm 202 W/m2
13:48 13.9 °C 6.5 °C 1014.2 hPa East 9.7 km/h 24.1 km/h 61% 0.0 mm 244 W/m2
13:53 14.1 °C 6.7 °C 1014.2 hPa East 4.7 km/h 11.3 km/h 61% 0.0 mm 591 W/m2
13:58 14.3 °C 6.6 °C 1014.2 hPa ESE 6.4 km/h 14.5 km/h 60% 0.0 mm 527 W/m2
14:03 14.4 °C 6.2 °C 1014.2 hPa ESE 3.2 km/h 9.7 km/h 58% 0.0 mm 538 W/m2
14:08 14.5 °C 6.3 °C 1013.9 hPa East 9.7 km/h 14.5 km/h 58% 0.0 mm 464 W/m2
14:13 14.4 °C 6.2 °C 1013.9 hPa ENE 7.9 km/h 19.3 km/h 58% 0.0 mm 278 W/m2
14:18 14.3 °C 6.1 °C 1013.9 hPa SE 3.2 km/h 8 km/h 58% 0.0 mm 559 W/m2
14:23 14.5 °C 5.8 °C 1013.5 hPa East 13 km/h 24.1 km/h 56% 0.0 mm 508 W/m2
14:28 14.6 °C 5.9 °C 1013.5 hPa East 3.2 km/h 11.3 km/h 56% 0.0 mm 95 W/m2
14:33 14.5 °C 5.8 °C 1013.5 hPa ENE 6.4 km/h 24.1 km/h 56% 0.0 mm 452 W/m2
14:38 14.6 °C 5.7 °C 1013.5 hPa East 4.7 km/h 11.3 km/h 55% 0.0 mm 381 W/m2
14:43 14.6 °C 5.7 °C 1013.5 hPa East 4.7 km/h 19.3 km/h 55% 0.0 mm 422 W/m2
14:48 14.7 °C 5.8 °C 1013.5 hPa ESE 6.4 km/h 16.1 km/h 55% 0.0 mm 401 W/m2
14:53 14.8 °C 5.6 °C 1013.5 hPa East 1.4 km/h 19.3 km/h 54% 0.0 mm 448 W/m2
14:58 14.9 °C 5.4 °C 1013.2 hPa East 6.4 km/h 11.3 km/h 53% 0.0 mm 396 W/m2
15:03 15.1 °C 5.3 °C 1013.5 hPa ESE 4.7 km/h 16.1 km/h 52% 0.0 mm 399 W/m2
15:08 15.1 °C 5.3 °C 1013.5 hPa ENE 4.7 km/h 6.4 km/h 52% 0.0 mm 390 W/m2
15:13 15.2 °C 5.1 °C 1013.5 hPa SE 7.9 km/h 11.3 km/h 51% 0.0 mm 403 W/m2
15:18 15.3 °C 4.9 °C 1013.2 hPa ESE 11.1 km/h 14.5 km/h 50% 0.0 mm 362 W/m2
15:23 15.3 °C 5.2 °C 1013.5 hPa ESE 4.7 km/h 14.5 km/h 51% 0.0 mm 357 W/m2
15:28 15.4 °C 5.6 °C 1013.5 hPa ENE 1.4 km/h 3.2 km/h 52% 0.0 mm 376 W/m2
15:33 15.4 °C 4.4 °C 1013.2 hPa East 11.1 km/h 12.9 km/h 48% 0.0 mm 332 W/m2
15:38 15.3 °C 4.6 °C 1013.2 hPa Calm   9.7 km/h 49% 0.0 mm 355 W/m2
15:43 15.3 °C 4.6 °C 1013.2 hPa ESE 3.2 km/h 19.3 km/h 49% 0.0 mm 383 W/m2
15:48 15.2 °C 4.6 °C 1013.2 hPa ESE 14.3 km/h 20.9 km/h 49% 0.0 mm 323 W/m2
15:53 15.2 °C 4.6 °C 1013.2 hPa East 4.7 km/h 12.9 km/h 49% 0.0 mm 325 W/m2
15:58 15.3 °C 4.6 °C 1013.2 hPa East 20.9 km/h 20.9 km/h 49% 0.0 mm 301 W/m2
16:04 15.3 °C 4.6 °C 1012.9 hPa East 6.4 km/h 9.7 km/h 49% 0.0 mm 253 W/m2
16:09 15.3 °C 4.6 °C 1012.9 hPa SE 6.4 km/h 16.1 km/h 49% 0.0 mm 155 W/m2
16:14 15.2 °C 4.3 °C 1012.9 hPa East 4.7 km/h 11.3 km/h 48% 0.0 mm 265 W/m2
16:19 15.2 °C 4.6 °C 1012.9 hPa ESE 1.4 km/h 6.4 km/h 49% 0.0 mm 227 W/m2
16:24 15.3 °C 4.6 °C 1012.9 hPa ENE 6.4 km/h 11.3 km/h 49% 0.0 mm 255 W/m2
16:29 15.2 °C 4 °C 1012.9 hPa East 1.4 km/h 14.5 km/h 47% 0.0 mm 272 W/m2
16:34 15.2 °C 4.3 °C 1012.5 hPa ENE 6.4 km/h 12.9 km/h 48% 0.0 mm 278 W/m2
16:39 15.3 °C 4.4 °C 1012.5 hPa ENE 4.7 km/h 14.5 km/h 48% 0.0 mm 255 W/m2
16:44 15.4 °C 4.4 °C 1012.5 hPa East 9.7 km/h 14.5 km/h 48% 0.0 mm 250 W/m2
16:49 15.3 °C 3.7 °C 1012.5 hPa Calm   14.5 km/h 46% 0.0 mm 165 W/m2
16:54 15.2 °C 4.6 °C 1012.5 hPa East 4.7 km/h 11.3 km/h 49% 0.0 mm 104 W/m2
16:59 15.2 °C 4 °C 1012.5 hPa East 3.2 km/h 14.5 km/h 47% 0.0 mm 179 W/m2
17:04 15.2 °C 4.3 °C 1012.5 hPa East 6.4 km/h 11.3 km/h 48% 0.0 mm 169 W/m2
17:09 15.2 °C 4 °C 1012.2 hPa East 11.1 km/h 12.9 km/h 47% 0.0 mm 123 W/m2
17:14 15.1 °C 3.6 °C 1012.2 hPa East 6.4 km/h 17.7 km/h 46% 0.0 mm 114 W/m2
17:19 15 °C 3.5 °C 1012.2 hPa East 14.3 km/h 16.1 km/h 46% 0.0 mm 109 W/m2
17:24 14.9 °C 3.4 °C 1012.5 hPa ESE 3.2 km/h 17.7 km/h 46% 0.0 mm 70 W/m2
17:29 14.9 °C 3.1 °C 1012.2 hPa SE 1.4 km/h 11.3 km/h 45% 0.0 mm 70 W/m2
17:34 14.8 °C 3.3 °C 1012.2 hPa East 7.9 km/h 8 km/h 46% 0.0 mm 69 W/m2
17:39 14.8 °C 3.3 °C 1012.5 hPa NE 6.4 km/h 9.7 km/h 46% 0.0 mm 56 W/m2
17:44 14.7 °C 3.2 °C 1012.2 hPa East 3.2 km/h 6.4 km/h 46% 0.0 mm 53 W/m2
17:49 14.6 °C 3.7 °C 1012.2 hPa NNE 3.2 km/h 9.7 km/h 48% 0.0 mm 46 W/m2
17:54 14.4 °C 4.1 °C 1012.2 hPa SSE 1.4 km/h 4.8 km/h 50% 0.0 mm 42 W/m2
17:59 14.2 °C 3.3 °C 1012.2 hPa NE 3.2 km/h 4.8 km/h 48% 0.0 mm 40 W/m2
18:04 14.1 °C 4.1 °C 1012.2 hPa Calm     51% 0.0 mm 37 W/m2
18:09 13.8 °C 3.8 °C 1012.2 hPa Calm   1.6 km/h 51% 0.0 mm 32 W/m2
18:14 13.6 °C 4.2 °C 1012.2 hPa WNW 1.4 km/h 1.6 km/h 53% 0.0 mm 28 W/m2
18:19 13.3 °C 4.7 °C 1012.2 hPa ESE 1.4 km/h 1.6 km/h 56% 0.0 mm 23 W/m2
18:24 12.9 °C 4.6 °C 1012.2 hPa Calm     57% 0.0 mm 18 W/m2
18:29 12.6 °C 4.8 °C 1012.2 hPa Calm     59% 0.0 mm 14 W/m2
18:34 12.2 °C 4.4 °C 1012.2 hPa Calm     59% 0.0 mm 11 W/m2
18:39 11.8 °C 4.5 °C 1012.2 hPa ESE 1.4 km/h 3.2 km/h 61% 0.0 mm 5 W/m2
18:44 11.5 °C 4.5 °C 1012.2 hPa Calm     62% 0.0 mm 0 W/m2
18:49 11.2 °C 4.4 °C 1012.2 hPa Calm     63% 0.0 mm 0 W/m2
18:54 10.9 °C 4.4 °C 1012.5 hPa Calm   1.6 km/h 64% 0.0 mm 0 W/m2
18:59 10.7 °C 4.2 °C 1012.5 hPa Calm     64% 0.0 mm 0 W/m2
19:04 10.5 °C 4.2 °C 1012.5 hPa SSE 1.4 km/h 3.2 km/h 65% 0.0 mm 0 W/m2
19:09 10.3 °C 4.2 °C 1012.5 hPa Calm   1.6 km/h 66% 0.0 mm 0 W/m2
19:14 10.2 °C 4.1 °C 1012.5 hPa Calm     66% 0.0 mm 0 W/m2
19:19 10 °C 4.2 °C 1012.2 hPa Calm   1.6 km/h 67% 0.0 mm 0 W/m2
19:24 9.8 °C 4.2 °C 1012.2 hPa Calm     68% 0.0 mm 0 W/m2
19:29 9.7 °C 4.3 °C 1012.2 hPa SSE 1.4 km/h 3.2 km/h 69% 0.0 mm 0 W/m2
19:34 9.4 °C 4.2 °C 1012.5 hPa Calm   1.6 km/h 70% 0.0 mm 0 W/m2
19:39 9.3 °C 4.1 °C 1012.5 hPa Calm   3.2 km/h 70% 0.0 mm 0 W/m2
19:44 9.2 °C 4 °C 1012.5 hPa Calm     70% 0.0 mm 0 W/m2
19:49 9.1 °C 4.1 °C 1012.5 hPa Calm     71% 0.0 mm 0 W/m2
19:54 9.1 °C 4.3 °C 1012.5 hPa Calm   1.6 km/h 72% 0.0 mm 0 W/m2
19:59 8.9 °C 4.1 °C 1012.2 hPa Calm   1.6 km/h 72% 0.0 mm 0 W/m2
20:04 8.8 °C 4.2 °C 1012.5 hPa Calm     73% 0.0 mm 0 W/m2
20:09 8.7 °C 4.1 °C 1012.5 hPa Calm     73% 0.0 mm 0 W/m2
20:14 8.7 °C 4.3 °C 1012.2 hPa Calm     74% 0.0 mm 0 W/m2
20:19 8.5 °C 4.1 °C 1012.5 hPa Calm     74% 0.0 mm 0 W/m2
20:24 8.4 °C 4 °C 1012.5 hPa Calm     74% 0.0 mm 0 W/m2
20:29 8.3 °C 4.1 °C 1012.5 hPa Calm   1.6 km/h 75% 0.0 mm 0 W/m2
20:35 8.2 °C 4 °C 1012.5 hPa SSE 1.4 km/h 3.2 km/h 75% 0.0 mm 0 W/m2
20:40 8.1 °C 4.1 °C 1012.2 hPa Calm     76% 0.0 mm 0 W/m2
20:45 8 °C 4 °C 1012.2 hPa Calm   3.2 km/h 76% 0.0 mm 0 W/m2
20:50 7.9 °C 4.1 °C 1012.5 hPa Calm   1.6 km/h 77% 0.0 mm 0 W/m2
20:55 7.8 °C 4 °C 1012.5 hPa Calm     77% 0.0 mm 0 W/m2
21:00 7.8 °C 4.2 °C 1012.5 hPa Calm     78% 0.0 mm 0 W/m2
21:05 7.8 °C 4.2 °C 1012.5 hPa Calm     78% 0.0 mm 0 W/m2
21:10 7.7 °C 4.1 °C 1012.5 hPa Calm   1.6 km/h 78% 0.0 mm 0 W/m2
21:15 7.6 °C 4 °C 1012.5 hPa Calm     78% 0.0 mm 0 W/m2
21:20 7.6 °C 4 °C 1012.5 hPa Calm   1.6 km/h 78% 0.0 mm 0 W/m2
21:25 7.5 °C 4.1 °C 1012.5 hPa Calm     79% 0.0 mm 0 W/m2
21:30 7.4 °C 4.2 °C 1012.5 hPa Calm     80% 0.0 mm 0 W/m2
21:35 7.4 °C 4.2 °C 1012.5 hPa Calm     80% 0.0 mm 0 W/m2
21:40 7.3 °C 4.1 °C 1012.5 hPa Calm     80% 0.0 mm 0 W/m2
21:45 7.3 °C 4.3 °C 1012.5 hPa Calm     81% 0.0 mm 0 W/m2
21:50 7.2 °C 4.2 °C 1012.5 hPa Calm     81% 0.0 mm 0 W/m2
21:55 7.2 °C 4.2 °C 1012.5 hPa Calm     81% 0.0 mm 0 W/m2
22:00 7.1 °C 4.1 °C 1012.5 hPa Calm     81% 0.0 mm 0 W/m2
22:05 7.1 °C 4.2 °C 1012.5 hPa Calm     82% 0.0 mm 0 W/m2
22:10 7.1 °C 4.2 °C 1012.9 hPa Calm     82% 0.0 mm 0 W/m2
22:15 7 °C 4.1 °C 1012.5 hPa Calm     82% 0.0 mm 0 W/m2
22:20 7 °C 4.1 °C 1012.9 hPa Calm     82% 0.0 mm 0 W/m2
22:25 7 °C 4.1 °C 1012.9 hPa Calm     82% 0.0 mm 0 W/m2
22:30 7.1 °C 4.4 °C 1012.9 hPa Calm     83% 0.0 mm 0 W/m2
22:35 7 °C 4.3 °C 1012.9 hPa Calm     83% 0.0 mm 0 W/m2
22:40 6.9 °C 4.2 °C 1012.9 hPa Calm     83% 0.0 mm 0 W/m2
22:45 6.9 °C 4.2 °C 1012.9 hPa SSE 1.4 km/h 1.6 km/h 83% 0.0 mm 0 W/m2
22:50 6.9 °C 4.2 °C 1012.9 hPa Calm   3.2 km/h 83% 0.0 mm 0 W/m2
22:55 6.8 °C 4.1 °C 1012.9 hPa Calm     83% 0.0 mm 0 W/m2
23:00 6.8 °C 4.1 °C 1012.9 hPa Calm   3.2 km/h 83% 0.0 mm 0 W/m2
23:05 6.7 °C 4 °C 1012.9 hPa Calm     83% 0.0 mm 0 W/m2
23:11 6.6 °C 3.9 °C 1012.9 hPa Calm     83% 0.0 mm 0 W/m2
23:16 6.5 °C 3.8 °C 1012.9 hPa Calm     83% 0.0 mm 0 W/m2
23:21 6.4 °C 3.9 °C 1012.9 hPa Calm     84% 0.0 mm 0 W/m2
23:26 6.3 °C 3.8 °C 1012.9 hPa Calm     84% 0.0 mm 0 W/m2
23:31 6.2 °C 3.7 °C 1012.9 hPa Calm     84% 0.0 mm 0 W/m2
23:36 6.1 °C 3.8 °C 1012.9 hPa Calm     85% 0.0 mm 0 W/m2
23:41 6.1 °C 3.8 °C 1012.9 hPa Calm     85% 0.0 mm 0 W/m2
23:46 6 °C 3.7 °C 1012.9 hPa Calm     85% 0.0 mm 0 W/m2
23:51 5.9 °C 3.6 °C 1012.9 hPa Calm     85% 0.0 mm 0 W/m2
23:56 5.9 °C 3.6 °C 1012.9 hPa Calm     85% 0.0 mm 0 W/m2
Juneau County Weather
Compliments of Weather Underground - 4 mb